Terminal Aerodrome Forecast
Issued by NWS

Home | Current Version | Previous Version | Text Only | Print | Product List | Glossary On
Versions: 1 2 3 4 5 6 7 8 9 10 11 12
126
FTUS43 KMQT 221125
TAFSAW
TAF
KSAW 221125Z 2212/2312 19012KT P6SM SCT025 BKN130
      TEMPO 2213/2215 BKN025
     FM221500 21010KT 6SM -SHRA OVC010
     FM221700 25009KT 6SM -SHRA OVC025
     FM222000 26007KT P6SM VCSH OVC050
     FM222200 24006KT P6SM BKN070
     FM230100 20004KT P6SM SCT200=

USA.gov is the U.S. government's official web portal to all federal, state and local government web resources and services.